Vremea mâine în Valea Lui Mihai - Romania

Vrei sa afli care e starea vremii acum in Bihor - Romania? Dorim sa iti furnizam starea vremii pentru Bihor - Romania. Starea vremii Bihor - Romania pentru astazi.

Vremea mâine în Valea Lui Mihai

Temperatura minimă:
10.6 °C

Temperatura maximă:
25.1 °C

Mâine va fi: Senin
Precipitații: 0 %
Umiditate: 54%
Viteza maximă vânt mâine:
14 km/h

Evoluția vremii in Valea Lui Mihai pe ore mâine

Ora: 04:00
Temperatura: °C
Sansa de precipitatii: %
Ora Descriere Temp Se simte Precipitatii Umiditate Vant
00:00Senin13.1°13.1°0%60%SSW 5.4 KM/H
01:00Senin12.7°12.6°0%61%S 6.1 KM/H
02:00Senin12.2°11.7°0%62%SSE 7.6 KM/H
03:00Senin11.6°11.1°0%65%SSE 7.2 KM/H
04:00Senin10.9°10.6°0%69%S 5.8 KM/H
05:00Senin10.6°10°0%71%SSE 6.5 KM/H
06:00Senin11.1°10.4°0%72%SSE 7.6 KM/H
07:00Senin13.8°13.7°0%66%SSE 6.8 KM/H
08:00Senin16.5°16.5°0%58%S 7.2 KM/H
09:00Senin18.7°18.7°0%53%S 7.6 KM/H
10:00Senin20.7°20.7°0%48%S 8.3 KM/H
11:00Senin22.2°24.2°0%43%SSW 9.4 KM/H
12:00Senin23.4°24.5°0%39%SSW 10.4 KM/H
13:00Senin24.3°24.8°0%37%SSW 11.5 KM/H
14:00Senin24.9°25.1°0%36%SSW 12.6 KM/H
15:00Senin25.1°25.1°0%35%SSW 13.7 KM/H
16:00Senin25°25.1°0%35%SSW 13.7 KM/H
17:00Senin24.6°25°0%37%SSW 14 KM/H
18:00Senin23.6°24.9°0%46%SSW 11.5 KM/H
19:00Senin20.9°20.9°0%56%S 10.8 KM/H
20:00Senin17.9°17.9°0%60%SSW 12.2 KM/H
21:00Senin16.5°16.6°0%59%S 12.2 KM/H
22:00Senin15.7°15.7°0%59%S 12.6 KM/H
23:00Innorat15.1°15.1°0%59%S 13 KM/H




tutorials